sensor_id;sensor_type;location;lat;lon;timestamp;pressure;altitude;pressure_sealevel;temperature;humidity
74905;BME280;63465;50.862;6.220;2022-11-14T00:02:33;99818.84;;;5.84;66.42
74905;BME280;63465;50.862;6.220;2022-11-14T00:05:19;99824.19;;;5.81;66.84
74905;BME280;63465;50.862;6.220;2022-11-14T00:08:05;99818.22;;;5.74;66.98
74905;BME280;63465;50.862;6.220;2022-11-14T00:10:51;99813.94;;;5.70;67.17
74905;BME280;63465;50.862;6.220;2022-11-14T00:13:37;99815.53;;;5.76;67.11
74905;BME280;63465;50.862;6.220;2022-11-14T00:16:22;99813.75;;;5.78;66.55
74905;BME280;63465;50.862;6.220;2022-11-14T00:19:07;99816.41;;;5.76;66.81
74905;BME280;63465;50.862;6.220;2022-11-14T00:21:52;99812.00;;;5.77;66.68
74905;BME280;63465;50.862;6.220;2022-11-14T00:24:38;99808.38;;;5.81;66.51
74905;BME280;63465;50.862;6.220;2022-11-14T00:27:24;99797.03;;;5.79;66.27
74905;BME280;63465;50.862;6.220;2022-11-14T00:30:10;99803.44;;;5.70;66.83
74905;BME280;63465;50.862;6.220;2022-11-14T00:32:55;99798.38;;;5.62;67.01
74905;BME280;63465;50.862;6.220;2022-11-14T00:35:40;99796.72;;;5.58;67.36
74905;BME280;63465;50.862;6.220;2022-11-14T00:38:33;99796.75;;;5.57;67.33
74905;BME280;63465;50.862;6.220;2022-11-14T00:41:19;99802.06;;;5.55;67.37
74905;BME280;63465;50.862;6.220;2022-11-14T00:44:05;99787.16;;;5.54;67.90
74905;BME280;63465;50.862;6.220;2022-11-14T00:46:51;99788.03;;;5.54;68.37
74905;BME280;63465;50.862;6.220;2022-11-14T00:49:37;99788.53;;;5.69;67.70
74905;BME280;63465;50.862;6.220;2022-11-14T00:52:22;99785.84;;;5.70;67.80
74905;BME280;63465;50.862;6.220;2022-11-14T00:55:08;99783.47;;;5.61;67.85
74905;BME280;63465;50.862;6.220;2022-11-14T00:57:53;99785.34;;;5.58;67.59
74905;BME280;63465;50.862;6.220;2022-11-14T01:00:40;99777.66;;;5.50;67.90
74905;BME280;63465;50.862;6.220;2022-11-14T01:03:25;99776.81;;;5.48;69.09
74905;BME280;63465;50.862;6.220;2022-11-14T01:06:11;99779.97;;;5.61;68.46
74905;BME280;63465;50.862;6.220;2022-11-14T01:08:57;99771.88;;;5.68;68.15
74905;BME280;63465;50.862;6.220;2022-11-14T01:11:42;99770.00;;;5.72;67.88
74905;BME280;63465;50.862;6.220;2022-11-14T01:14:27;99760.16;;;5.79;67.79
74905;BME280;63465;50.862;6.220;2022-11-14T01:17:14;99756.56;;;5.81;67.57
74905;BME280;63465;50.862;6.220;2022-11-14T01:19:59;99763.66;;;5.79;67.75
74905;BME280;63465;50.862;6.220;2022-11-14T01:22:44;99753.53;;;5.95;67.91
74905;BME280;63465;50.862;6.220;2022-11-14T01:25:31;99754.13;;;5.44;68.66
74905;BME280;63465;50.862;6.220;2022-11-14T01:28:18;99754.44;;;4.23;69.79
74905;BME280;63465;50.862;6.220;2022-11-14T01:31:08;99756.69;;;4.00;70.76
74905;BME280;63465;50.862;6.220;2022-11-14T01:33:55;99756.00;;;3.90;71.00
74905;BME280;63465;50.862;6.220;2022-11-14T01:36:40;99753.56;;;4.60;71.34
74905;BME280;63465;50.862;6.220;2022-11-14T01:39:25;99762.34;;;4.97;69.31
74905;BME280;63465;50.862;6.220;2022-11-14T01:42:11;99760.16;;;5.13;69.00
74905;BME280;63465;50.862;6.220;2022-11-14T01:44:56;99765.34;;;5.16;68.84
74905;BME280;63465;50.862;6.220;2022-11-14T01:47:41;99761.78;;;5.18;69.29
74905;BME280;63465;50.862;6.220;2022-11-14T01:50:28;99759.94;;;5.22;69.28
74905;BME280;63465;50.862;6.220;2022-11-14T01:53:13;99753.31;;;5.40;69.04
74905;BME280;63465;50.862;6.220;2022-11-14T01:56:02;99755.78;;;5.46;68.95
74905;BME280;63465;50.862;6.220;2022-11-14T01:58:51;99750.34;;;5.52;68.75
74905;BME280;63465;50.862;6.220;2022-11-14T02:01:42;99746.75;;;5.57;68.52
74905;BME280;63465;50.862;6.220;2022-11-14T02:04:32;99743.31;;;5.54;68.57
74905;BME280;63465;50.862;6.220;2022-11-14T02:07:19;99731.81;;;5.57;68.53
74905;BME280;63465;50.862;6.220;2022-11-14T02:10:07;99734.31;;;5.62;68.46
74905;BME280;63465;50.862;6.220;2022-11-14T02:12:53;99734.47;;;5.56;68.16
74905;BME280;63465;50.862;6.220;2022-11-14T02:15:39;99723.94;;;5.56;68.22
74905;BME280;63465;50.862;6.220;2022-11-14T02:18:24;99722.13;;;5.59;68.20
74905;BME280;63465;50.862;6.220;2022-11-14T02:21:11;99717.38;;;5.41;68.42
74905;BME280;63465;50.862;6.220;2022-11-14T02:23:56;99722.50;;;5.12;69.56
74905;BME280;63465;50.862;6.220;2022-11-14T02:26:42;99708.53;;;5.10;69.55
74905;BME280;63465;50.862;6.220;2022-11-14T02:29:27;99695.22;;;5.16;69.50
74905;BME280;63465;50.862;6.220;2022-11-14T02:32:12;99691.84;;;5.10;70.01
74905;BME280;63465;50.862;6.220;2022-11-14T02:34:57;99683.72;;;5.19;69.40
74905;BME280;63465;50.862;6.220;2022-11-14T02:37:44;99678.75;;;5.41;68.99
74905;BME280;63465;50.862;6.220;2022-11-14T02:40:29;99674.78;;;5.58;68.24
74905;BME280;63465;50.862;6.220;2022-11-14T02:43:14;99680.97;;;5.55;68.21
74905;BME280;63465;50.862;6.220;2022-11-14T02:45:59;99680.22;;;5.51;68.52
74905;BME280;63465;50.862;6.220;2022-11-14T02:48:44;99672.41;;;5.48;68.90
74905;BME280;63465;50.862;6.220;2022-11-14T02:51:30;99671.47;;;5.49;68.22
74905;BME280;63465;50.862;6.220;2022-11-14T02:54:16;99667.19;;;5.47;68.75
74905;BME280;63465;50.862;6.220;2022-11-14T02:57:01;99675.34;;;5.38;69.95
74905;BME280;63465;50.862;6.220;2022-11-14T02:59:47;99677.44;;;5.25;70.33
74905;BME280;63465;50.862;6.220;2022-11-14T03:02:32;99669.38;;;5.31;69.27
74905;BME280;63465;50.862;6.220;2022-11-14T03:05:17;99668.56;;;5.29;68.88
74905;BME280;63465;50.862;6.220;2022-11-14T03:08:03;99668.81;;;5.20;69.63
74905;BME280;63465;50.862;6.220;2022-11-14T03:10:49;99666.41;;;5.12;71.11
74905;BME280;63465;50.862;6.220;2022-11-14T03:13:35;99672.22;;;5.23;70.67
74905;BME280;63465;50.862;6.220;2022-11-14T03:16:20;99663.25;;;5.30;70.79
74905;BME280;63465;50.862;6.220;2022-11-14T03:19:05;99658.56;;;5.42;69.98
74905;BME280;63465;50.862;6.220;2022-11-14T03:21:50;99656.94;;;5.38;69.74
74905;BME280;63465;50.862;6.220;2022-11-14T03:24:36;99654.13;;;5.44;69.92
74905;BME280;63465;50.862;6.220;2022-11-14T03:27:22;99658.56;;;5.42;69.54
74905;BME280;63465;50.862;6.220;2022-11-14T03:30:09;99651.41;;;5.47;69.94
74905;BME280;63465;50.862;6.220;2022-11-14T03:32:55;99658.41;;;5.46;69.28
74905;BME280;63465;50.862;6.220;2022-11-14T03:35:41;99653.91;;;5.20;70.17
74905;BME280;63465;50.862;6.220;2022-11-14T03:38:26;99657.41;;;5.19;70.46
74905;BME280;63465;50.862;6.220;2022-11-14T03:41:12;99651.34;;;5.17;70.89
74905;BME280;63465;50.862;6.220;2022-11-14T03:43:58;99653.03;;;5.20;70.45
74905;BME280;63465;50.862;6.220;2022-11-14T03:46:43;99646.44;;;4.72;71.33
74905;BME280;63465;50.862;6.220;2022-11-14T03:49:28;99645.41;;;4.43;72.05
74905;BME280;63465;50.862;6.220;2022-11-14T03:52:13;99640.44;;;4.65;71.21
74905;BME280;63465;50.862;6.220;2022-11-14T03:54:58;99647.97;;;4.79;70.63
74905;BME280;63465;50.862;6.220;2022-11-14T03:57:43;99651.03;;;4.96;70.81
74905;BME280;63465;50.862;6.220;2022-11-14T04:00:30;99649.72;;;4.80;71.53
74905;BME280;63465;50.862;6.220;2022-11-14T04:03:15;99638.00;;;4.92;71.18
74905;BME280;63465;50.862;6.220;2022-11-14T04:06:00;99640.53;;;4.96;70.00
74905;BME280;63465;50.862;6.220;2022-11-14T04:08:46;99637.38;;;4.82;70.77
74905;BME280;63465;50.862;6.220;2022-11-14T04:11:31;99630.06;;;4.60;71.63
74905;BME280;63465;50.862;6.220;2022-11-14T04:14:17;99629.00;;;4.68;71.68
74905;BME280;63465;50.862;6.220;2022-11-14T04:17:03;99624.47;;;4.73;71.44
74905;BME280;63465;50.862;6.220;2022-11-14T04:19:49;99626.41;;;4.66;71.21
74905;BME280;63465;50.862;6.220;2022-11-14T04:22:34;99626.69;;;4.19;72.79
74905;BME280;63465;50.862;6.220;2022-11-14T04:25:19;99630.09;;;4.24;72.17
74905;BME280;63465;50.862;6.220;2022-11-14T04:28:04;99628.59;;;4.49;71.04
74905;BME280;63465;50.862;6.220;2022-11-14T04:30:50;99626.19;;;4.39;71.78
74905;BME280;63465;50.862;6.220;2022-11-14T04:33:36;99620.75;;;4.47;71.82
74905;BME280;63465;50.862;6.220;2022-11-14T04:36:21;99622.56;;;4.45;71.48
74905;BME280;63465;50.862;6.220;2022-11-14T04:39:06;99634.81;;;4.46;71.47
74905;BME280;63465;50.862;6.220;2022-11-14T04:41:51;99632.91;;;4.51;71.60
74905;BME280;63465;50.862;6.220;2022-11-14T04:44:37;99625.00;;;4.53;70.93
74905;BME280;63465;50.862;6.220;2022-11-14T04:47:22;99633.06;;;4.45;71.04
74905;BME280;63465;50.862;6.220;2022-11-14T04:50:09;99632.50;;;4.34;70.79
74905;BME280;63465;50.862;6.220;2022-11-14T04:52:55;99633.72;;;4.19;71.89
74905;BME280;63465;50.862;6.220;2022-11-14T04:55:40;99626.94;;;4.08;72.22
74905;BME280;63465;50.862;6.220;2022-11-14T04:58:25;99625.44;;;4.00;72.78
74905;BME280;63465;50.862;6.220;2022-11-14T05:01:11;99620.88;;;4.06;72.16
74905;BME280;63465;50.862;6.220;2022-11-14T05:03:57;99614.72;;;4.09;72.91
74905;BME280;63465;50.862;6.220;2022-11-14T05:06:44;99622.69;;;4.04;72.07
74905;BME280;63465;50.862;6.220;2022-11-14T05:09:29;99619.44;;;3.93;72.13
74905;BME280;63465;50.862;6.220;2022-11-14T05:12:14;99611.66;;;3.88;73.04
74905;BME280;63465;50.862;6.220;2022-11-14T05:15:00;99609.78;;;3.93;74.17
74905;BME280;63465;50.862;6.220;2022-11-14T05:17:45;99595.56;;;4.04;73.64
74905;BME280;63465;50.862;6.220;2022-11-14T05:20:30;99592.03;;;4.05;73.27
74905;BME280;63465;50.862;6.220;2022-11-14T05:23:18;99590.22;;;4.07;72.94
74905;BME280;63465;50.862;6.220;2022-11-14T05:26:06;99583.41;;;4.00;73.25
74905;BME280;63465;50.862;6.220;2022-11-14T05:28:51;99579.91;;;3.99;73.78
74905;BME280;63465;50.862;6.220;2022-11-14T05:31:36;99582.47;;;4.02;74.06
74905;BME280;63465;50.862;6.220;2022-11-14T05:34:22;99579.06;;;3.99;74.26
74905;BME280;63465;50.862;6.220;2022-11-14T05:37:07;99575.66;;;3.95;74.28
74905;BME280;63465;50.862;6.220;2022-11-14T05:39:53;99575.34;;;3.70;74.78
74905;BME280;63465;50.862;6.220;2022-11-14T05:42:39;99568.56;;;3.60;75.30
74905;BME280;63465;50.862;6.220;2022-11-14T05:45:24;99567.81;;;3.54;76.01
74905;BME280;63465;50.862;6.220;2022-11-14T05:48:09;99568.66;;;3.56;75.61
74905;BME280;63465;50.862;6.220;2022-11-14T05:50:55;99571.28;;;3.56;76.00
74905;BME280;63465;50.862;6.220;2022-11-14T05:53:41;99571.06;;;3.66;75.15
74905;BME280;63465;50.862;6.220;2022-11-14T05:56:27;99563.97;;;3.71;75.28
74905;BME280;63465;50.862;6.220;2022-11-14T05:59:13;99576.09;;;3.75;75.04
74905;BME280;63465;50.862;6.220;2022-11-14T06:01:59;99577.16;;;3.68;75.64
74905;BME280;63465;50.862;6.220;2022-11-14T06:04:44;99573.69;;;3.66;75.19
74905;BME280;63465;50.862;6.220;2022-11-14T06:07:29;99567.47;;;3.70;75.53
74905;BME280;63465;50.862;6.220;2022-11-14T06:10:14;99570.00;;;3.74;75.04
74905;BME280;63465;50.862;6.220;2022-11-14T06:13:01;99560.19;;;3.81;74.58
74905;BME280;63465;50.862;6.220;2022-11-14T06:15:46;99562.94;;;3.77;75.11
74905;BME280;63465;50.862;6.220;2022-11-14T06:18:32;99557.50;;;3.84;74.86
74905;BME280;63465;50.862;6.220;2022-11-14T06:21:20;99560.03;;;3.89;74.24
74905;BME280;63465;50.862;6.220;2022-11-14T06:24:06;99554.78;;;3.89;74.09
74905;BME280;63465;50.862;6.220;2022-11-14T06:26:52;99557.72;;;3.75;74.42
74905;BME280;63465;50.862;6.220;2022-11-14T06:29:38;99561.47;;;3.65;75.24
74905;BME280;63465;50.862;6.220;2022-11-14T06:32:23;99557.22;;;3.59;75.61
74905;BME280;63465;50.862;6.220;2022-11-14T06:35:09;99552.88;;;3.58;74.96
74905;BME280;63465;50.862;6.220;2022-11-14T06:37:54;99559.91;;;3.56;75.70
74905;BME280;63465;50.862;6.220;2022-11-14T06:40:39;99555.56;;;3.55;75.59
74905;BME280;63465;50.862;6.220;2022-11-14T06:43:24;99558.38;;;3.46;76.07
74905;BME280;63465;50.862;6.220;2022-11-14T06:46:12;99556.03;;;3.33;76.74
74905;BME280;63465;50.862;6.220;2022-11-14T06:48:57;99541.91;;;3.41;76.61
74905;BME280;63465;50.862;6.220;2022-11-14T06:51:43;99552.69;;;3.27;76.44
74905;BME280;63465;50.862;6.220;2022-11-14T06:54:28;99555.41;;;3.22;76.50
74905;BME280;63465;50.862;6.220;2022-11-14T06:57:13;99562.59;;;3.12;76.90
74905;BME280;63465;50.862;6.220;2022-11-14T06:59:58;99564.47;;;3.07;76.96
74905;BME280;63465;50.862;6.220;2022-11-14T07:02:46;99557.13;;;3.23;77.47
74905;BME280;63465;50.862;6.220;2022-11-14T07:05:32;99562.28;;;3.29;76.76
74905;BME280;63465;50.862;6.220;2022-11-14T07:08:17;99556.94;;;3.34;77.05
74905;BME280;63465;50.862;6.220;2022-11-14T07:11:03;99563.88;;;3.35;76.38
74905;BME280;63465;50.862;6.220;2022-11-14T07:13:49;99563.06;;;3.33;77.22
74905;BME280;63465;50.862;6.220;2022-11-14T07:16:35;99562.28;;;3.28;77.68
74905;BME280;63465;50.862;6.220;2022-11-14T07:19:21;99563.63;;;3.46;77.11
74905;BME280;63465;50.862;6.220;2022-11-14T07:22:06;99563.28;;;3.61;76.84
74905;BME280;63465;50.862;6.220;2022-11-14T07:24:52;99556.09;;;3.71;76.54
74905;BME280;63465;50.862;6.220;2022-11-14T07:27:37;99552.31;;;3.81;75.79
74905;BME280;63465;50.862;6.220;2022-11-14T07:30:22;99562.72;;;3.86;76.15
74905;BME280;63465;50.862;6.220;2022-11-14T07:33:07;99561.22;;;3.75;76.33
74905;BME280;63465;50.862;6.220;2022-11-14T07:35:54;99549.97;;;3.70;77.01
74905;BME280;63465;50.862;6.220;2022-11-14T07:38:39;99542.19;;;3.66;77.39
74905;BME280;63465;50.862;6.220;2022-11-14T07:41:24;99559.59;;;3.70;77.53
74905;BME280;63465;50.862;6.220;2022-11-14T07:44:09;99551.63;;;3.74;77.44
74905;BME280;63465;50.862;6.220;2022-11-14T07:46:55;99555.06;;;3.77;77.88
74905;BME280;63465;50.862;6.220;2022-11-14T07:49:40;99560.97;;;3.86;78.24
74905;BME280;63465;50.862;6.220;2022-11-14T07:52:26;99567.13;;;3.85;78.00
74905;BME280;63465;50.862;6.220;2022-11-14T07:55:14;99558.25;;;3.91;78.35
74905;BME280;63465;50.862;6.220;2022-11-14T07:57:59;99559.88;;;3.97;78.03
74905;BME280;63465;50.862;6.220;2022-11-14T08:00:44;99555.59;;;3.92;78.62
74905;BME280;63465;50.862;6.220;2022-11-14T08:03:30;99555.47;;;3.97;78.02
74905;BME280;63465;50.862;6.220;2022-11-14T08:06:15;99554.47;;;4.03;78.64
74905;BME280;63465;50.862;6.220;2022-11-14T08:09:02;99557.63;;;4.16;78.40
74905;BME280;63465;50.862;6.220;2022-11-14T08:11:47;99551.13;;;4.31;77.87
74905;BME280;63465;50.862;6.220;2022-11-14T08:14:32;99546.28;;;4.48;77.35
74905;BME280;63465;50.862;6.220;2022-11-14T08:17:19;99550.81;;;4.76;76.69
74905;BME280;63465;50.862;6.220;2022-11-14T08:20:06;99545.16;;;4.90;75.70
74905;BME280;63465;50.862;6.220;2022-11-14T08:22:52;99538.59;;;5.05;76.07
74905;BME280;63465;50.862;6.220;2022-11-14T08:25:38;99530.16;;;5.23;75.50
74905;BME280;63465;50.862;6.220;2022-11-14T08:28:23;99530.13;;;5.25;75.66
74905;BME280;63465;50.862;6.220;2022-11-14T08:31:08;99522.69;;;5.39;75.16
74905;BME280;63465;50.862;6.220;2022-11-14T08:33:54;99527.63;;;5.50;75.07
74905;BME280;63465;50.862;6.220;2022-11-14T08:36:39;99510.81;;;5.54;75.63
74905;BME280;63465;50.862;6.220;2022-11-14T08:39:24;99513.59;;;5.78;74.88
74905;BME280;63465;50.862;6.220;2022-11-14T08:42:11;99509.81;;;5.85;75.22
74905;BME280;63465;50.862;6.220;2022-11-14T08:44:56;99523.13;;;6.09;74.84
74905;BME280;63465;50.862;6.220;2022-11-14T08:47:41;99527.59;;;6.06;75.25
74905;BME280;63465;50.862;6.220;2022-11-14T08:50:27;99527.25;;;6.42;74.73
74905;BME280;63465;50.862;6.220;2022-11-14T08:53:12;99515.38;;;6.56;74.29
74905;BME280;63465;50.862;6.220;2022-11-14T08:55:57;99502.81;;;6.63;73.54
74905;BME280;63465;50.862;6.220;2022-11-14T08:58:44;99499.91;;;6.70;73.08
74905;BME280;63465;50.862;6.220;2022-11-14T09:01:29;99498.44;;;6.87;73.06
74905;BME280;63465;50.862;6.220;2022-11-14T09:04:15;99498.09;;;6.96;72.99
74905;BME280;63465;50.862;6.220;2022-11-14T09:07:00;99488.22;;;6.77;72.81
74905;BME280;63465;50.862;6.220;2022-11-14T09:09:45;99486.16;;;6.86;73.40
74905;BME280;63465;50.862;6.220;2022-11-14T09:12:31;99489.56;;;6.89;72.67
74905;BME280;63465;50.862;6.220;2022-11-14T09:15:18;99482.94;;;7.01;72.88
74905;BME280;63465;50.862;6.220;2022-11-14T09:18:03;99475.31;;;7.17;72.38
74905;BME280;63465;50.862;6.220;2022-11-14T09:20:48;99471.94;;;7.36;71.91
74905;BME280;63465;50.862;6.220;2022-11-14T09:23:34;99477.00;;;7.42;71.54
74905;BME280;63465;50.862;6.220;2022-11-14T09:26:20;99468.03;;;7.46;71.85
74905;BME280;63465;50.862;6.220;2022-11-14T09:29:05;99470.41;;;7.74;71.10
74905;BME280;63465;50.862;6.220;2022-11-14T09:31:53;99469.09;;;7.84;70.48
74905;BME280;63465;50.862;6.220;2022-11-14T09:34:39;99464.16;;;7.97;69.73
74905;BME280;63465;50.862;6.220;2022-11-14T09:37:28;99469.00;;;8.08;70.10
74905;BME280;63465;50.862;6.220;2022-11-14T09:40:13;99470.06;;;8.04;69.81
74905;BME280;63465;50.862;6.220;2022-11-14T09:43:12;99481.69;;;8.20;69.68
74905;BME280;63465;50.862;6.220;2022-11-14T09:46:01;99495.03;;;8.17;69.67
74905;BME280;63465;50.862;6.220;2022-11-14T09:48:49;99502.03;;;8.18;70.40
74905;BME280;63465;50.862;6.220;2022-11-14T09:51:41;99502.16;;;8.15;70.71
74905;BME280;63465;50.862;6.220;2022-11-14T09:54:35;99507.78;;;8.50;69.69
74905;BME280;63465;50.862;6.220;2022-11-14T09:57:24;99501.88;;;8.64;68.93
74905;BME280;63465;50.862;6.220;2022-11-14T10:00:15;99500.06;;;8.85;68.55
74905;BME280;63465;50.862;6.220;2022-11-14T10:03:08;99501.66;;;9.08;68.20
74905;BME280;63465;50.862;6.220;2022-11-14T10:06:22;99503.13;;;8.95;67.79
74905;BME280;63465;50.862;6.220;2022-11-14T10:09:32;99503.56;;;9.05;67.21
74905;BME280;63465;50.862;6.220;2022-11-14T10:12:24;99494.88;;;9.95;64.10
74905;BME280;63465;50.862;6.220;2022-11-14T10:15:15;99508.47;;;11.41;59.15
74905;BME280;63465;50.862;6.220;2022-11-14T10:18:13;99497.59;;;12.24;55.47
74905;BME280;63465;50.862;6.220;2022-11-14T10:21:08;99493.41;;;13.08;53.55
74905;BME280;63465;50.862;6.220;2022-11-14T10:24:03;99490.41;;;13.83;51.25
74905;BME280;63465;50.862;6.220;2022-11-14T10:27:00;99488.09;;;14.44;49.34
74905;BME280;63465;50.862;6.220;2022-11-14T10:30:04;99491.97;;;14.53;48.87
74905;BME280;63465;50.862;6.220;2022-11-14T10:33:02;99492.28;;;14.49;48.91
74905;BME280;63465;50.862;6.220;2022-11-14T10:35:56;99479.22;;;14.31;49.42
74905;BME280;63465;50.862;6.220;2022-11-14T10:38:49;99474.72;;;15.34;46.51
74905;BME280;63465;50.862;6.220;2022-11-14T10:41:39;99467.50;;;15.85;45.41
74905;BME280;63465;50.862;6.220;2022-11-14T10:44:29;99464.41;;;16.14;43.71
74905;BME280;63465;50.862;6.220;2022-11-14T10:47:18;99468.78;;;15.79;44.80
74905;BME280;63465;50.862;6.220;2022-11-14T10:50:14;99465.75;;;16.08;43.85
74905;BME280;63465;50.862;6.220;2022-11-14T10:53:06;99464.47;;;15.15;45.59
74905;BME280;63465;50.862;6.220;2022-11-14T10:55:57;99466.09;;;12.61;52.33
74905;BME280;63465;50.862;6.220;2022-11-14T10:58:45;99467.47;;;11.93;54.87
74905;BME280;63465;50.862;6.220;2022-11-14T11:01:36;99470.75;;;11.19;58.15
74905;BME280;63465;50.862;6.220;2022-11-14T11:04:25;99465.72;;;10.81;59.89
74905;BME280;63465;50.862;6.220;2022-11-14T11:07:20;99462.72;;;11.04;59.10
74905;BME280;63465;50.862;6.220;2022-11-14T11:10:24;99468.88;;;11.69;57.92
74905;BME280;63465;50.862;6.220;2022-11-14T11:13:30;99471.88;;;11.63;56.08
74905;BME280;63465;50.862;6.220;2022-11-14T11:16:21;99481.88;;;11.57;56.52
74905;BME280;63465;50.862;6.220;2022-11-14T11:19:14;99473.16;;;11.07;57.20
74905;BME280;63465;50.862;6.220;2022-11-14T11:21:59;99468.41;;;10.81;58.38
74905;BME280;63465;50.862;6.220;2022-11-14T11:24:44;99486.84;;;10.66;58.53
74905;BME280;63465;50.862;6.220;2022-11-14T11:27:30;99479.81;;;10.65;58.77
74905;BME280;63465;50.862;6.220;2022-11-14T11:30:19;99469.38;;;10.27;59.51
74905;BME280;63465;50.862;6.220;2022-11-14T11:33:25;99454.34;;;10.63;58.87
74905;BME280;63465;50.862;6.220;2022-11-14T11:36:14;99461.94;;;11.18;56.70
74905;BME280;63465;50.862;6.220;2022-11-14T11:39:01;99457.94;;;10.78;57.68
74905;BME280;63465;50.862;6.220;2022-11-14T11:41:48;99450.94;;;10.43;58.83
74905;BME280;63465;50.862;6.220;2022-11-14T11:44:36;99443.66;;;10.29;59.95
74905;BME280;63465;50.862;6.220;2022-11-14T11:47:21;99439.44;;;10.43;60.06
74905;BME280;63465;50.862;6.220;2022-11-14T11:50:13;99442.81;;;10.46;60.13
74905;BME280;63465;50.862;6.220;2022-11-14T11:53:05;99429.63;;;10.94;59.03
74905;BME280;63465;50.862;6.220;2022-11-14T11:55:58;99419.69;;;11.30;58.12
74905;BME280;63465;50.862;6.220;2022-11-14T11:58:47;99416.94;;;12.24;55.20
74905;BME280;63465;50.862;6.220;2022-11-14T12:01:33;99421.47;;;11.45;57.65
74905;BME280;63465;50.862;6.220;2022-11-14T12:04:18;99416.81;;;11.65;56.65
74905;BME280;63465;50.862;6.220;2022-11-14T12:07:09;99417.47;;;11.38;57.64
74905;BME280;63465;50.862;6.220;2022-11-14T12:09:57;99420.81;;;10.94;59.25
74905;BME280;63465;50.862;6.220;2022-11-14T12:16:07;99419.59;;;9.99;61.98
74905;BME280;63465;50.862;6.220;2022-11-14T12:19:05;99408.19;;;10.14;62.22
74905;BME280;63465;50.862;6.220;2022-11-14T12:22:12;99412.09;;;10.25;62.58
74905;BME280;63465;50.862;6.220;2022-11-14T12:25:08;99409.34;;;10.44;61.93
74905;BME280;63465;50.862;6.220;2022-11-14T12:28:12;99406.31;;;10.16;62.21
74905;BME280;63465;50.862;6.220;2022-11-14T12:31:03;99402.88;;;10.14;62.30
74905;BME280;63465;50.862;6.220;2022-11-14T12:33:53;99403.03;;;10.11;62.60
74905;BME280;63465;50.862;6.220;2022-11-14T12:36:42;99401.41;;;10.09;62.29
74905;BME280;63465;50.862;6.220;2022-11-14T12:39:30;99409.22;;;9.94;62.57
74905;BME280;63465;50.862;6.220;2022-11-14T12:42:19;99402.03;;;9.96;62.77
74905;BME280;63465;50.862;6.220;2022-11-14T12:48:40;99395.19;;;9.75;63.73
74905;BME280;63465;50.862;6.220;2022-11-14T12:51:48;99388.31;;;9.71;64.47
74905;BME280;63465;50.862;6.220;2022-11-14T12:54:43;99387.53;;;9.69;64.21
74905;BME280;63465;50.862;6.220;2022-11-14T12:57:35;99393.47;;;9.56;64.92
74905;BME280;63465;50.862;6.220;2022-11-14T13:00:33;99388.09;;;9.58;64.99
74905;BME280;63465;50.862;6.220;2022-11-14T13:03:28;99381.13;;;9.55;64.85
74905;BME280;63465;50.862;6.220;2022-11-14T13:06:23;99379.22;;;9.59;65.10
74905;BME280;63465;50.862;6.220;2022-11-14T13:09:33;99378.19;;;9.61;64.54
74905;BME280;63465;50.862;6.220;2022-11-14T13:12:28;99371.19;;;9.78;64.30
74905;BME280;63465;50.862;6.220;2022-11-14T13:15:33;99375.06;;;9.71;63.63
74905;BME280;63465;50.862;6.220;2022-11-14T13:18:55;99368.53;;;9.78;63.64
74905;BME280;63465;50.862;6.220;2022-11-14T13:25:21;99358.78;;;9.78;64.49
74905;BME280;63465;50.862;6.220;2022-11-14T13:28:45;99361.50;;;9.77;63.75
74905;BME280;63465;50.862;6.220;2022-11-14T13:31:46;99351.22;;;9.71;64.38
74905;BME280;63465;50.862;6.220;2022-11-14T13:34:37;99361.81;;;9.71;63.63
74905;BME280;63465;50.862;6.220;2022-11-14T13:40:36;99369.00;;;9.69;63.81
74905;BME280;63465;50.862;6.220;2022-11-14T13:43:35;99358.56;;;9.66;63.84
74905;BME280;63465;50.862;6.220;2022-11-14T13:46:37;99362.31;;;9.79;63.71
74905;BME280;63465;50.862;6.220;2022-11-14T13:49:38;99359.00;;;9.74;63.85
74905;BME280;63465;50.862;6.220;2022-11-14T13:52:28;99366.13;;;9.91;63.77
74905;BME280;63465;50.862;6.220;2022-11-14T13:55:19;99362.34;;;9.60;63.85
74905;BME280;63465;50.862;6.220;2022-11-14T13:58:16;99365.16;;;9.57;64.31
74905;BME280;63465;50.862;6.220;2022-11-14T14:01:14;99360.25;;;9.49;64.37
74905;BME280;63465;50.862;6.220;2022-11-14T14:04:25;99363.34;;;9.40;64.29
74905;BME280;63465;50.862;6.220;2022-11-14T14:07:23;99360.09;;;9.35;64.04
74905;BME280;63465;50.862;6.220;2022-11-14T14:10:22;99370.22;;;9.44;63.97
74905;BME280;63465;50.862;6.220;2022-11-14T14:13:20;99357.84;;;9.44;64.03
74905;BME280;63465;50.862;6.220;2022-11-14T14:16:15;99359.31;;;9.50;63.89
74905;BME280;63465;50.862;6.220;2022-11-14T14:19:07;99360.91;;;9.54;64.32
74905;BME280;63465;50.862;6.220;2022-11-14T14:22:01;99359.72;;;9.42;64.12
74905;BME280;63465;50.862;6.220;2022-11-14T14:24:57;99349.19;;;9.41;64.71
74905;BME280;63465;50.862;6.220;2022-11-14T14:27:54;99349.72;;;9.30;64.73
74905;BME280;63465;50.862;6.220;2022-11-14T14:33:41;99351.91;;;9.39;64.94
74905;BME280;63465;50.862;6.220;2022-11-14T14:36:28;99347.22;;;9.27;65.07
74905;BME280;63465;50.862;6.220;2022-11-14T14:39:17;99349.97;;;9.25;64.60
74905;BME280;63465;50.862;6.220;2022-11-14T14:42:09;99346.53;;;9.23;64.92
74905;BME280;63465;50.862;6.220;2022-11-14T14:44:55;99337.09;;;9.18;64.71
74905;BME280;63465;50.862;6.220;2022-11-14T14:47:43;99336.16;;;9.19;65.20
74905;BME280;63465;50.862;6.220;2022-11-14T14:50:35;99336.22;;;9.17;65.01
74905;BME280;63465;50.862;6.220;2022-11-14T14:53:23;99338.25;;;9.12;65.63
74905;BME280;63465;50.862;6.220;2022-11-14T14:56:16;99334.00;;;9.27;65.04
74905;BME280;63465;50.862;6.220;2022-11-14T14:59:14;99335.00;;;9.24;65.50
74905;BME280;63465;50.862;6.220;2022-11-14T15:02:00;99328.84;;;9.24;65.14
74905;BME280;63465;50.862;6.220;2022-11-14T15:04:46;99326.34;;;9.21;65.27
74905;BME280;63465;50.862;6.220;2022-11-14T15:07:33;99318.81;;;9.13;65.76
74905;BME280;63465;50.862;6.220;2022-11-14T15:10:23;99323.44;;;9.08;65.88
74905;BME280;63465;50.862;6.220;2022-11-14T15:13:14;99319.72;;;9.12;65.77
74905;BME280;63465;50.862;6.220;2022-11-14T15:16:00;99318.66;;;9.16;65.71
74905;BME280;63465;50.862;6.220;2022-11-14T15:18:47;99321.53;;;9.12;65.59
74905;BME280;63465;50.862;6.220;2022-11-14T15:21:33;99322.53;;;9.09;65.73